createdAt,value
2022-09-28T00:00:13.877Z,24.70
2022-09-28T00:03:02.028Z,26.70
2022-09-28T00:05:32.005Z,26.50
2022-09-28T00:08:00.669Z,27.90
2022-09-28T00:10:28.743Z,28.10
2022-09-28T00:13:00.050Z,27.60
2022-09-28T00:15:28.548Z,28.80
2022-09-28T00:17:56.878Z,29.10
2022-09-28T00:20:25.697Z,27.90
2022-09-28T00:22:54.327Z,28.40
2022-09-28T00:25:24.506Z,28.40
2022-09-28T00:27:52.702Z,22.50
2022-09-28T00:30:21.109Z,19.90
2022-09-28T00:32:51.950Z,22.50
2022-09-28T00:35:25.881Z,18.00
2022-09-28T00:40:26.577Z,14.00
2022-09-28T00:42:56.419Z,9.90
2022-09-28T00:45:28.071Z,7.60
2022-09-28T00:48:01.131Z,7.30
2022-09-28T00:50:34.329Z,5.90
2022-09-28T00:53:11.819Z,6.30
2022-09-28T00:55:46.177Z,6.00
2022-09-28T00:58:22.463Z,5.50
2022-09-28T01:00:52.648Z,5.10
2022-09-28T01:03:23.503Z,5.30
2022-09-28T01:05:55.967Z,6.00
2022-09-28T01:08:29.283Z,5.70
2022-09-28T01:13:25.881Z,5.20
2022-09-28T01:16:01.647Z,7.30
2022-09-28T01:18:36.692Z,4.60
2022-09-28T01:21:06.105Z,5.70
2022-09-28T01:23:56.814Z,5.80
2022-09-28T01:26:46.970Z,5.50
2022-09-28T01:29:21.424Z,5.50
2022-09-28T01:31:53.048Z,5.30
2022-09-28T01:34:30.917Z,5.20
2022-09-28T01:37:01.614Z,5.20
2022-09-28T01:39:32.829Z,5.70
2022-09-28T01:42:04.813Z,5.50
2022-09-28T01:44:39.177Z,5.80
2022-09-28T01:47:10.148Z,5.60
2022-09-28T01:49:41.677Z,4.60
2022-09-28T01:52:13.927Z,5.30
2022-09-28T01:54:45.373Z,4.30
2022-09-28T01:57:17.079Z,4.00
2022-09-28T01:59:49.507Z,3.50
2022-09-28T02:02:22.445Z,3.30
2022-09-28T02:04:53.439Z,3.30
2022-09-28T02:07:24.331Z,3.80
2022-09-28T02:09:57.254Z,3.50
2022-09-28T02:12:31.080Z,3.60
2022-09-28T02:15:05.234Z,3.00
2022-09-28T02:17:33.897Z,3.00
2022-09-28T02:20:02.653Z,3.10
2022-09-28T02:22:36.766Z,3.10
2022-09-28T02:25:10.256Z,2.60
2022-09-28T02:27:42.750Z,2.60
2022-09-28T02:30:12.145Z,2.50
2022-09-28T02:32:44.116Z,2.70
2022-09-28T02:35:14.554Z,2.70
2022-09-28T02:37:42.940Z,2.90
2022-09-28T02:40:14.831Z,3.90
2022-09-28T02:42:51.195Z,3.40
2022-09-28T02:45:30.027Z,2.60
2022-09-28T02:48:10.978Z,2.70
2022-09-28T02:50:44.597Z,3.00
2022-09-28T02:53:26.549Z,3.30
2022-09-28T02:56:08.592Z,3.10
2022-09-28T02:58:42.457Z,4.00
2022-09-28T03:01:19.693Z,3.00
2022-09-28T03:03:53.067Z,3.30
2022-09-28T03:06:26.642Z,3.30
2022-09-28T03:08:59.957Z,3.20
2022-09-28T03:11:32.132Z,3.20
2022-09-28T03:14:00.950Z,3.80
2022-09-28T03:16:31.577Z,3.80
2022-09-28T03:18:59.736Z,3.10
2022-09-28T03:21:27.932Z,3.40
2022-09-28T03:23:56.002Z,3.40
2022-09-28T03:26:24.069Z,3.70
2022-09-28T03:28:52.421Z,4.30
2022-09-28T03:31:20.561Z,4.80
2022-09-28T03:33:48.784Z,5.00
2022-09-28T03:36:17.502Z,5.70
2022-09-28T03:38:45.612Z,5.40
2022-09-28T03:41:13.716Z,5.60
2022-09-28T03:43:41.863Z,5.30
2022-09-28T03:46:10.124Z,6.50
2022-09-28T03:48:39.377Z,5.80
2022-09-28T03:51:09.784Z,5.40
2022-09-28T03:53:38.538Z,5.60
2022-09-28T03:56:10.390Z,5.50
2022-09-28T03:58:38.781Z,6.30
2022-09-28T04:01:12.935Z,6.40
2022-09-28T04:03:44.884Z,6.40
2022-09-28T04:06:13.765Z,6.90
2022-09-28T04:08:42.849Z,7.60
2022-09-28T04:11:11.284Z,8.60
2022-09-28T04:13:39.783Z,8.30
2022-09-28T04:16:09.075Z,10.40
2022-09-28T04:18:38.383Z,9.50
2022-09-28T04:21:10.108Z,13.30
2022-09-28T04:23:39.892Z,15.20
2022-09-28T04:26:11.739Z,17.30
2022-09-28T04:29:00.650Z,19.40
2022-09-28T04:31:36.998Z,21.60
2022-09-28T04:34:05.569Z,21.10
2022-09-28T04:36:33.698Z,22.60
2022-09-28T04:39:01.923Z,21.80
2022-09-28T04:41:30.480Z,22.30
2022-09-28T04:43:58.894Z,22.90
2022-09-28T04:46:27.138Z,23.80
2022-09-28T04:48:55.776Z,24.00
2022-09-28T04:51:24.162Z,23.50
2022-09-28T04:53:52.307Z,22.50
2022-09-28T04:56:20.809Z,21.70
2022-09-28T04:58:52.574Z,22.90
2022-09-28T05:01:23.969Z,22.00
2022-09-28T05:03:52.150Z,21.40
2022-09-28T05:06:22.013Z,23.60
2022-09-28T05:08:50.290Z,22.30
2022-09-28T05:11:19.377Z,21.70
2022-09-28T05:13:48.493Z,23.20
2022-09-28T05:16:17.292Z,23.50
2022-09-28T05:18:45.560Z,23.40
2022-09-28T05:21:14.960Z,23.40
2022-09-28T05:23:47.207Z,23.50
2022-09-28T05:26:16.614Z,23.50
2022-09-28T05:28:44.898Z,23.10
2022-09-28T05:31:13.069Z,23.90
2022-09-28T05:33:41.669Z,25.10
2022-09-28T05:36:10.988Z,25.80
2022-09-28T05:38:39.319Z,22.60
2022-09-28T05:41:07.765Z,21.30
2022-09-28T05:43:36.295Z,22.10
2022-09-28T05:46:04.776Z,20.00
2022-09-28T05:48:32.934Z,21.60
2022-09-28T05:51:01.279Z,19.40
2022-09-28T05:53:29.401Z,19.50
2022-09-28T05:55:58.999Z,19.40
2022-09-28T05:58:28.211Z,20.90
2022-09-28T06:00:56.955Z,20.60
2022-09-28T06:03:25.565Z,19.20
2022-09-28T06:05:53.797Z,20.30
2022-09-28T06:08:24.979Z,19.50
2022-09-28T06:10:53.270Z,20.10
2022-09-28T06:13:21.470Z,20.00
2022-09-28T06:15:49.623Z,21.60
2022-09-28T06:18:17.719Z,20.90
2022-09-28T06:20:46.069Z,20.70
2022-09-28T06:23:14.644Z,20.40
2022-09-28T06:25:42.786Z,20.10
2022-09-28T06:28:12.460Z,20.30
2022-09-28T06:30:41.615Z,19.90
2022-09-28T06:33:12.499Z,16.60
2022-09-28T06:35:40.695Z,18.70
2022-09-28T06:38:09.174Z,19.10
2022-09-28T06:40:38.317Z,19.30
2022-09-28T06:43:09.901Z,18.90
2022-09-28T06:45:38.812Z,20.20
2022-09-28T06:48:07.637Z,19.00
2022-09-28T06:50:37.559Z,18.80
2022-09-28T06:53:10.580Z,20.40
2022-09-28T06:55:40.301Z,19.50
2022-09-28T06:58:10.903Z,19.10
2022-09-28T07:00:39.944Z,21.20
2022-09-28T07:03:12.085Z,20.90
2022-09-28T07:05:42.615Z,21.10
2022-09-28T07:08:11.485Z,20.10
2022-09-28T07:10:43.125Z,19.60
2022-09-28T07:13:34.557Z,19.90
2022-09-28T07:16:01.789Z,16.60
2022-09-28T07:18:30.160Z,17.30
2022-09-28T07:20:59.136Z,18.50
2022-09-28T07:23:29.900Z,16.70
2022-09-28T07:25:58.380Z,17.60
2022-09-28T07:28:26.538Z,16.90
2022-09-28T07:30:57.173Z,17.70
2022-09-28T07:33:32.264Z,16.20
2022-09-28T07:36:05.874Z,15.80
2022-09-28T07:38:34.149Z,16.30
2022-09-28T07:41:11.829Z,16.30
2022-09-28T07:43:40.618Z,15.90
2022-09-28T07:46:11.572Z,16.80
2022-09-28T07:48:45.062Z,16.40
2022-09-28T07:51:13.639Z,16.10
2022-09-28T07:53:42.084Z,16.30
2022-09-28T07:56:16.754Z,16.50
2022-09-28T07:58:50.465Z,14.60
2022-09-28T08:01:19.681Z,12.80
2022-09-28T08:03:52.454Z,13.70
2022-09-28T08:06:22.833Z,12.10
2022-09-28T08:08:56.169Z,12.70
2022-09-28T08:11:26.095Z,12.00
2022-09-28T08:13:59.804Z,11.70
2022-09-28T08:16:29.675Z,11.10
2022-09-28T08:18:59.977Z,11.40
2022-09-28T08:21:47.402Z,11.10
2022-09-28T08:24:24.092Z,11.00
2022-09-28T08:26:57.124Z,10.50
2022-09-28T08:32:06.385Z,10.90
2022-09-28T08:34:35.378Z,11.30
2022-09-28T08:37:04.823Z,11.40
2022-09-28T08:39:35.392Z,9.50
2022-09-28T08:42:15.526Z,10.40
2022-09-28T08:44:47.477Z,9.50
2022-09-28T08:47:38.157Z,9.90
2022-09-28T08:50:10.078Z,9.70
2022-09-28T08:52:40.080Z,8.30
2022-09-28T08:55:13.709Z,9.40
2022-09-28T08:57:48.205Z,8.40
2022-09-28T09:00:31.802Z,7.60
2022-09-28T09:03:05.952Z,8.20
2022-09-28T09:05:47.594Z,8.30
2022-09-28T09:08:36.529Z,7.80
2022-09-28T09:11:13.510Z,8.30
2022-09-28T09:13:51.703Z,8.10
2022-09-28T09:16:40.708Z,7.80
2022-09-28T09:19:16.171Z,8.80
2022-09-28T09:21:54.173Z,8.00
2022-09-28T09:24:28.397Z,6.70
2022-09-28T09:27:08.710Z,7.90
2022-09-28T09:29:50.062Z,7.70
2022-09-28T09:32:38.111Z,7.50
2022-09-28T09:35:16.664Z,7.10
2022-09-28T09:38:05.951Z,6.60
2022-09-28T09:40:44.568Z,6.10
2022-09-28T09:43:32.994Z,6.70
2022-09-28T09:46:12.073Z,5.40
2022-09-28T09:48:47.245Z,4.20
2022-09-28T09:51:28.408Z,4.90
2022-09-28T09:54:00.432Z,6.60
2022-09-28T09:56:34.662Z,4.40
2022-09-28T09:59:08.171Z,3.80
2022-09-28T10:04:06.311Z,4.40
2022-09-28T10:06:36.392Z,5.30
2022-09-28T10:09:08.738Z,4.80
2022-09-28T10:11:39.477Z,3.70
2022-09-28T10:14:12.597Z,6.80
2022-09-28T10:16:42.681Z,4.30
2022-09-28T10:19:12.692Z,7.10
2022-09-28T10:21:46.035Z,5.00
2022-09-28T10:24:28.163Z,3.60
2022-09-28T10:26:58.973Z,4.10
2022-09-28T10:29:44.514Z,2.50
2022-09-28T10:35:49.617Z,2.90
2022-09-28T10:38:35.759Z,3.00
2022-09-28T10:41:13.274Z,2.80
2022-09-28T10:44:06.854Z,5.50
2022-09-28T10:47:02.923Z,3.30
2022-09-28T10:49:46.611Z,4.30
2022-09-28T10:52:39.967Z,2.60
2022-09-28T10:55:36.771Z,5.40
2022-09-28T10:58:32.672Z,3.90
2022-09-28T11:01:09.370Z,2.70
2022-09-28T11:03:51.140Z,3.30
2022-09-28T11:06:27.331Z,4.40
2022-09-28T11:09:03.797Z,3.00
2022-09-28T11:11:40.777Z,1.60
2022-09-28T11:14:24.751Z,3.50
2022-09-28T11:17:17.317Z,4.10
2022-09-28T11:19:47.418Z,3.00
2022-09-28T11:22:29.794Z,2.40
2022-09-28T11:25:23.939Z,5.20
2022-09-28T11:28:04.674Z,4.20
2022-09-28T11:30:40.063Z,3.10
2022-09-28T11:33:14.784Z,4.60
2022-09-28T11:35:55.375Z,5.20
2022-09-28T11:38:34.188Z,4.10
2022-09-28T11:41:28.241Z,5.10
2022-09-28T11:44:23.109Z,4.00
2022-09-28T11:47:08.514Z,3.60
2022-09-28T11:49:40.500Z,4.60
2022-09-28T11:52:17.102Z,6.40
2022-09-28T11:54:52.793Z,4.10
2022-09-28T11:57:25.203Z,4.00
2022-09-28T12:00:08.030Z,5.30
2022-09-28T12:06:02.535Z,2.40
2022-09-28T12:08:41.710Z,5.10
2022-09-28T12:11:21.789Z,2.50
2022-09-28T12:14:01.735Z,2.00
2022-09-28T12:17:04.978Z,3.30
2022-09-28T12:19:43.151Z,2.10
2022-09-28T12:22:25.688Z,1.90
2022-09-28T12:25:00.787Z,2.30
2022-09-28T12:27:45.985Z,3.00
2022-09-28T12:30:40.835Z,11.00
2022-09-28T12:33:17.059Z,3.60
2022-09-28T12:36:04.805Z,4.70
2022-09-28T12:39:21.819Z,3.10
2022-09-28T12:42:22.626Z,2.30
2022-09-28T12:45:08.894Z,2.00
2022-09-28T12:48:18.301Z,3.30
2022-09-28T12:50:58.125Z,2.40
2022-09-28T12:53:53.943Z,1.90
2022-09-28T12:56:30.830Z,1.40
2022-09-28T12:59:14.637Z,2.80
2022-09-28T13:02:15.577Z,2.20
2022-09-28T13:05:05.033Z,2.80
2022-09-28T13:07:45.921Z,2.80
2022-09-28T13:10:25.878Z,5.80
2022-09-28T13:13:23.773Z,2.40
2022-09-28T13:16:15.724Z,3.40
2022-09-28T13:18:56.301Z,2.70
2022-09-28T13:21:38.251Z,1.60
2022-09-28T13:24:32.208Z,3.30
2022-09-28T13:27:11.478Z,1.50
2022-09-28T13:29:45.066Z,3.00
2022-09-28T13:32:18.764Z,4.40
2022-09-28T13:34:52.949Z,2.10
2022-09-28T13:37:25.957Z,2.20
2022-09-28T13:40:07.568Z,3.90
2022-09-28T13:42:53.816Z,2.20
2022-09-28T13:45:58.005Z,2.20
2022-09-28T13:48:42.626Z,2.10
2022-09-28T13:51:31.947Z,1.90
2022-09-28T13:54:22.085Z,8.70
2022-09-28T13:56:57.996Z,2.10
2022-09-28T13:59:32.898Z,1.50
2022-09-28T14:02:12.468Z,1.70
2022-09-28T14:04:59.971Z,4.00
2022-09-28T14:07:59.576Z,1.60
2022-09-28T14:10:49.665Z,1.70
2022-09-28T14:13:55.814Z,4.60
2022-09-28T14:16:31.253Z,2.10
2022-09-28T14:19:07.178Z,1.90
2022-09-28T14:22:05.172Z,1.50
2022-09-28T14:24:51.319Z,2.20
2022-09-28T14:27:45.630Z,3.70
2022-09-28T14:30:29.395Z,1.50
2022-09-28T14:33:02.933Z,4.40
2022-09-28T14:35:41.014Z,3.00
2022-09-28T14:38:36.313Z,2.90
2022-09-28T14:41:11.113Z,2.80
2022-09-28T14:44:03.934Z,4.00
2022-09-28T14:46:48.714Z,2.30
2022-09-28T14:49:50.992Z,1.40
2022-09-28T14:52:42.359Z,2.00
2022-09-28T14:55:26.473Z,3.40
2022-09-28T14:58:06.360Z,2.10
2022-09-28T15:00:41.847Z,6.90
2022-09-28T15:03:16.198Z,3.50
2022-09-28T15:05:52.596Z,4.10
2022-09-28T15:08:38.795Z,4.20
2022-09-28T15:11:15.487Z,6.40
2022-09-28T15:13:47.931Z,5.20
2022-09-28T15:16:23.274Z,3.50
2022-09-28T15:19:31.042Z,3.70
2022-09-28T15:22:06.824Z,2.70
2022-09-28T15:24:40.943Z,4.70
2022-09-28T15:27:24.746Z,8.70
2022-09-28T15:30:13.150Z,6.80
2022-09-28T15:32:47.050Z,5.10
2022-09-28T15:37:53.053Z,7.20
2022-09-28T15:40:31.940Z,3.50
2022-09-28T15:43:03.859Z,3.50
2022-09-28T15:45:37.709Z,8.50
2022-09-28T15:48:27.706Z,4.30
2022-09-28T15:51:10.406Z,7.00
2022-09-28T15:53:51.417Z,2.70
2022-09-28T15:56:23.369Z,7.10
2022-09-28T15:59:11.687Z,5.00
2022-09-28T16:01:45.768Z,5.60
2022-09-28T16:04:44.605Z,7.50
2022-09-28T16:07:25.139Z,3.50
2022-09-28T16:10:35.226Z,3.30
2022-09-28T16:13:16.235Z,4.00
2022-09-28T16:15:50.662Z,4.40
2022-09-28T16:18:23.840Z,5.30
2022-09-28T16:20:57.242Z,10.80
2022-09-28T16:23:31.256Z,5.30
2022-09-28T16:26:06.073Z,6.50
2022-09-28T16:28:53.878Z,6.40
2022-09-28T16:31:37.352Z,6.70
2022-09-28T16:34:20.992Z,6.30
2022-09-28T16:36:55.577Z,9.10
2022-09-28T16:39:27.303Z,4.50
2022-09-28T16:42:03.855Z,3.60
2022-09-28T16:44:37.564Z,4.90
2022-09-28T16:47:09.460Z,3.90
2022-09-28T16:49:41.638Z,4.90
2022-09-28T16:52:34.350Z,8.20
2022-09-28T16:58:10.864Z,5.80
2022-09-28T17:00:43.511Z,6.70
2022-09-28T17:03:19.648Z,17.90
2022-09-28T17:05:52.149Z,7.40
2022-09-28T17:08:25.870Z,8.50
2022-09-28T17:11:14.793Z,7.50
2022-09-28T17:13:50.223Z,9.90
2022-09-28T17:16:37.273Z,7.40
2022-09-28T17:19:21.506Z,11.00
2022-09-28T17:21:53.611Z,9.00
2022-09-28T17:24:25.612Z,9.60
2022-09-28T17:27:00.911Z,11.30
2022-09-28T17:29:33.358Z,13.70
2022-09-28T17:32:08.575Z,10.80
2022-09-28T17:34:40.592Z,11.70
2022-09-28T17:37:14.786Z,10.00
2022-09-28T17:39:46.698Z,10.20
2022-09-28T17:42:18.333Z,15.90
2022-09-28T17:44:50.738Z,11.20
2022-09-28T17:47:22.390Z,13.80
2022-09-28T17:49:54.865Z,11.20
2022-09-28T17:52:26.555Z,11.60
2022-09-28T17:54:58.906Z,14.70
2022-09-28T17:57:30.450Z,12.30
2022-09-28T18:00:02.471Z,12.40
2022-09-28T18:02:34.602Z,12.80
2022-09-28T18:05:07.435Z,10.70
2022-09-28T18:07:40.175Z,11.20
2022-09-28T18:10:18.553Z,12.60
2022-09-28T18:12:50.525Z,9.60
2022-09-28T18:15:22.790Z,10.10
2022-09-28T18:17:54.705Z,11.00
2022-09-28T18:20:27.165Z,9.80
2022-09-28T18:23:01.740Z,13.60
2022-09-28T18:25:34.161Z,15.50
2022-09-28T18:28:06.584Z,12.60
2022-09-28T18:30:42.604Z,11.20
2022-09-28T18:33:15.408Z,9.00
2022-09-28T18:35:55.231Z,8.90
2022-09-28T18:38:26.992Z,9.00
2022-09-28T18:41:07.408Z,9.00
2022-09-28T18:43:39.336Z,7.80
2022-09-28T18:46:12.175Z,7.50
2022-09-28T18:48:44.056Z,8.00
2022-09-28T18:51:16.115Z,6.30
2022-09-28T18:53:48.058Z,6.00
2022-09-28T18:56:21.232Z,6.20
2022-09-28T18:58:52.971Z,5.50
2022-09-28T19:01:30.050Z,10.30
2022-09-28T19:04:08.693Z,6.50
2022-09-28T19:06:42.898Z,6.20
2022-09-28T19:11:45.266Z,6.00
2022-09-28T19:14:18.655Z,5.70
2022-09-28T19:16:50.827Z,7.30
2022-09-28T19:19:22.996Z,5.20
2022-09-28T19:21:59.314Z,5.80
2022-09-28T19:24:32.035Z,6.60
2022-09-28T19:27:04.089Z,5.60
2022-09-28T19:29:35.908Z,4.20
2022-09-28T19:32:07.955Z,4.20
2022-09-28T19:34:40.406Z,5.80
2022-09-28T19:37:12.252Z,4.10
2022-09-28T19:39:45.525Z,3.70
2022-09-28T19:42:19.802Z,4.00
2022-09-28T19:44:51.373Z,4.90
2022-09-28T19:47:26.826Z,5.70
2022-09-28T19:49:59.109Z,4.50
2022-09-28T19:52:30.992Z,4.10
2022-09-28T19:55:02.969Z,5.10
2022-09-28T19:57:37.954Z,4.50
2022-09-28T20:00:16.978Z,4.70
2022-09-28T20:02:54.512Z,7.10
2022-09-28T20:05:30.321Z,6.50
2022-09-28T20:10:38.511Z,7.40
2022-09-28T20:13:10.396Z,7.80
2022-09-28T20:15:42.210Z,7.90
2022-09-28T20:18:16.299Z,8.10
2022-09-28T20:23:21.913Z,9.50
2022-09-28T20:25:56.270Z,8.90
2022-09-28T20:28:28.747Z,8.70
2022-09-28T20:31:06.117Z,9.20
2022-09-28T20:33:39.409Z,9.30
2022-09-28T20:36:14.007Z,9.60
2022-09-28T20:38:48.091Z,10.60
2022-09-28T20:41:22.075Z,10.60
2022-09-28T20:43:56.364Z,10.00
2022-09-28T20:46:28.167Z,10.90
2022-09-28T20:49:00.951Z,10.50
2022-09-28T20:51:32.711Z,10.40
2022-09-28T20:54:04.997Z,11.30
2022-09-28T20:56:41.474Z,11.10
2022-09-28T20:59:15.238Z,12.10
2022-09-28T21:01:47.194Z,12.10
2022-09-28T21:04:19.891Z,12.30
2022-09-28T21:06:52.232Z,13.40
2022-09-28T21:09:25.115Z,12.40
2022-09-28T21:11:56.782Z,11.70
2022-09-28T21:14:28.930Z,12.10
2022-09-28T21:17:00.600Z,12.20
2022-09-28T21:19:32.561Z,12.00
2022-09-28T21:22:04.165Z,12.80
2022-09-28T21:24:35.923Z,13.30
2022-09-28T21:27:07.616Z,12.20
2022-09-28T21:29:39.586Z,14.40
2022-09-28T21:32:11.178Z,14.80
2022-09-28T21:34:44.295Z,15.20
2022-09-28T21:37:16.149Z,15.90
2022-09-28T21:39:56.516Z,16.00
2022-09-28T21:42:31.053Z,16.60
2022-09-28T21:45:03.578Z,15.30
2022-09-28T21:47:35.581Z,15.90
2022-09-28T21:50:08.820Z,17.00
2022-09-28T21:52:40.479Z,10.00
2022-09-28T21:55:12.455Z,17.20
2022-09-28T21:57:44.228Z,18.90
2022-09-28T22:00:17.738Z,20.10
2022-09-28T22:02:49.488Z,20.50
2022-09-28T22:05:22.447Z,21.20
2022-09-28T22:07:54.034Z,21.40
2022-09-28T22:10:26.010Z,21.10
2022-09-28T22:12:57.660Z,21.00
2022-09-28T22:15:29.642Z,21.10
2022-09-28T22:18:01.242Z,18.00
2022-09-28T22:20:33.550Z,21.00
2022-09-28T22:23:05.171Z,19.10
2022-09-28T22:25:37.070Z,21.30
2022-09-28T22:28:08.707Z,20.80
2022-09-28T22:30:40.874Z,19.70
2022-09-28T22:33:12.561Z,22.50
2022-09-28T22:35:44.281Z,23.30
2022-09-28T22:38:15.879Z,24.10
2022-09-28T22:40:51.781Z,24.90
2022-09-28T22:43:24.685Z,21.60
2022-09-28T22:46:05.584Z,27.40
2022-09-28T22:48:37.837Z,27.20
2022-09-28T22:51:09.884Z,29.80
2022-09-28T22:53:41.635Z,57.90
2022-09-28T22:56:18.373Z,34.30
2022-09-28T22:58:50.638Z,57.80
2022-09-28T23:01:24.051Z,65.60
2022-09-28T23:03:57.116Z,43.20
2022-09-28T23:06:30.427Z,77.70
2022-09-28T23:09:02.935Z,40.30
2022-09-28T23:11:35.218Z,106.00
2022-09-28T23:14:06.963Z,148.80
2022-09-28T23:16:38.761Z,109.50
2022-09-28T23:19:10.374Z,116.70
2022-09-28T23:21:42.338Z,82.10
2022-09-28T23:24:14.002Z,62.20
2022-09-28T23:26:46.341Z,43.50
2022-09-28T23:29:18.128Z,60.30
2022-09-28T23:31:50.141Z,79.40
2022-09-28T23:34:21.945Z,55.70
2022-09-28T23:36:56.906Z,47.20
2022-09-28T23:39:28.606Z,32.70
2022-09-28T23:42:00.296Z,36.50
2022-09-28T23:44:32.811Z,33.30
2022-09-28T23:47:04.654Z,24.60
2022-09-28T23:49:37.997Z,19.80
2022-09-28T23:52:09.740Z,16.70
2022-09-28T23:54:41.517Z,29.20
2022-09-28T23:57:13.255Z,15.30
2022-09-28T23:59:44.870Z,25.60
